createdAt,value
2022-08-01T00:05:34.675Z,99208.48
2022-08-01T00:15:41.061Z,99207.78
2022-08-01T00:25:57.587Z,99204.04
2022-08-01T00:36:03.369Z,99201.85
2022-08-01T00:46:09.209Z,99205.62
2022-08-01T00:56:15.632Z,99210.96
2022-08-01T01:06:37.827Z,99206.58
2022-08-01T01:16:45.464Z,99207.63
2022-08-01T01:26:59.501Z,99205.64
2022-08-01T01:37:08.762Z,99200.13
2022-08-01T01:47:16.122Z,99201.23
2022-08-01T01:57:23.927Z,99200.66
2022-08-01T02:07:30.773Z,99205.02
2022-08-01T02:17:43.562Z,99195.00
2022-08-01T02:27:54.129Z,99188.63
2022-08-01T02:38:02.227Z,99189.31
2022-08-01T02:48:11.939Z,99194.96
2022-08-01T02:58:20.746Z,99198.91
2022-08-01T03:08:28.013Z,99200.98
2022-08-01T03:18:34.640Z,99200.94
2022-08-01T03:28:41.132Z,99200.25
2022-08-01T03:38:48.742Z,99194.55
2022-08-01T03:48:57.765Z,99196.61
2022-08-01T03:59:06.107Z,99196.86
2022-08-01T04:09:13.901Z,99201.85
2022-08-01T04:19:20.134Z,99219.77
2022-08-01T04:29:27.462Z,99225.67
2022-08-01T04:39:50.832Z,99218.86
2022-08-01T04:49:58.044Z,99208.71
2022-08-01T05:00:05.364Z,99212.84
2022-08-01T05:10:12.174Z,99204.52
2022-08-01T05:20:18.149Z,99201.45
2022-08-01T05:30:24.105Z,99191.92
2022-08-01T05:40:29.959Z,99189.82
2022-08-01T05:50:36.380Z,99185.29
2022-08-01T06:00:42.353Z,99178.77
2022-08-01T06:10:48.212Z,99187.71
2022-08-01T06:20:53.949Z,99185.87
2022-08-01T06:31:00.830Z,99187.07
2022-08-01T06:41:06.692Z,99185.98
2022-08-01T06:51:14.551Z,99197.69
2022-08-01T07:01:20.523Z,99192.27
2022-08-01T07:11:27.329Z,99187.52
2022-08-01T07:21:40.420Z,99178.52
2022-08-01T07:31:47.003Z,99177.79
2022-08-01T07:42:13.371Z,99177.88
2022-08-01T07:52:18.967Z,99179.45
2022-08-01T08:02:25.227Z,99170.04
2022-08-01T08:12:30.965Z,99170.66
2022-08-01T08:22:37.677Z,99155.45
2022-08-01T08:32:44.078Z,99160.85
2022-08-01T08:42:49.937Z,99174.44
2022-08-01T08:52:57.442Z,99177.08
2022-08-01T09:03:03.962Z,99176.67
2022-08-01T09:13:13.338Z,99180.48
2022-08-01T09:23:36.085Z,99188.15
2022-08-01T09:33:56.831Z,99188.64
2022-08-01T09:44:04.903Z,99192.21
2022-08-01T09:54:10.667Z,99190.89
2022-08-01T10:04:20.167Z,99189.31
2022-08-01T10:14:26.988Z,99193.72
2022-08-01T10:24:34.146Z,99193.11
2022-08-01T10:34:44.951Z,99190.83
2022-08-01T10:44:52.032Z,99184.22
2022-08-01T10:55:05.315Z,99179.96
2022-08-01T11:05:23.824Z,99168.33
2022-08-01T11:15:31.230Z,99171.68
2022-08-01T11:26:10.911Z,99170.61
2022-08-01T11:36:55.875Z,99172.15
2022-08-01T11:47:10.931Z,99163.61
2022-08-01T11:57:23.542Z,99163.25
2022-08-01T12:07:33.250Z,99165.11
2022-08-01T12:17:57.315Z,99169.51
2022-08-01T12:28:07.163Z,99165.62
2022-08-01T12:38:26.054Z,99162.64
2022-08-01T12:48:34.420Z,99162.40
2022-08-01T12:58:40.413Z,99160.76
2022-08-01T13:08:47.141Z,99159.89
2022-08-01T13:18:54.902Z,99168.30
2022-08-01T13:29:09.801Z,99165.29
2022-08-01T13:39:33.271Z,99161.39
2022-08-01T13:49:41.015Z,99155.66
2022-08-01T13:59:47.066Z,99155.66
2022-08-01T14:10:04.770Z,99156.75
2022-08-01T14:20:20.754Z,99155.79
2022-08-01T14:30:26.426Z,99160.35
2022-08-01T14:40:32.731Z,99160.21
2022-08-01T14:50:39.217Z,99166.28
2022-08-01T15:00:45.309Z,99166.02
2022-08-01T15:10:51.312Z,99170.55
2022-08-01T15:20:58.458Z,99171.52
2022-08-01T15:31:04.323Z,99167.92
2022-08-01T15:41:10.354Z,99173.33
2022-08-01T15:51:16.439Z,99171.72
2022-08-01T16:01:22.716Z,99174.61
2022-08-01T16:11:28.753Z,99176.69
2022-08-01T16:21:34.846Z,99175.70
2022-08-01T16:31:43.819Z,99178.83
2022-08-01T16:42:08.126Z,99183.75
2022-08-01T16:52:14.270Z,99181.17
2022-08-01T17:02:20.236Z,99182.30
2022-08-01T17:12:26.559Z,99189.41
2022-08-01T17:22:32.403Z,99190.59
2022-08-01T17:32:39.772Z,99204.80
2022-08-01T17:42:45.853Z,99213.88
2022-08-01T17:52:51.888Z,99217.58
2022-08-01T18:02:57.948Z,99224.46
2022-08-01T18:13:04.318Z,99244.39
2022-08-01T18:23:11.256Z,99253.16
2022-08-01T18:33:17.106Z,99258.55
2022-08-01T18:43:23.267Z,99259.92
2022-08-01T18:53:29.181Z,99267.40
2022-08-01T19:03:36.779Z,99278.11
2022-08-01T19:13:45.406Z,99287.30
2022-08-01T19:24:09.125Z,99295.38
2022-08-01T19:34:16.908Z,99304.98
2022-08-01T19:44:25.943Z,99308.39
2022-08-01T19:54:35.759Z,99317.54
2022-08-01T20:04:43.869Z,99323.61
2022-08-01T20:14:53.905Z,99320.49
2022-08-01T20:25:01.862Z,99322.40
2022-08-01T20:35:09.596Z,99321.58
2022-08-01T20:45:18.763Z,99323.42
2022-08-01T20:55:27.415Z,99327.14
2022-08-01T21:05:37.698Z,99325.02
2022-08-01T21:16:11.801Z,99335.19
2022-08-01T21:26:24.098Z,99337.58
2022-08-01T21:36:31.223Z,99333.91
2022-08-01T21:46:37.287Z,99342.69
2022-08-01T21:56:55.912Z,99349.70
2022-08-01T22:07:03.881Z,99352.43
2022-08-01T22:17:11.384Z,99347.79
2022-08-01T22:28:06.335Z,99355.52
2022-08-01T22:37:56.078Z,99361.02
2022-08-01T22:48:11.709Z,99367.85
2022-08-01T22:58:20.335Z,99373.36
2022-08-01T23:08:26.650Z,99369.17
2022-08-01T23:18:32.689Z,99371.05
2022-08-01T23:28:40.450Z,99377.13
2022-08-01T23:38:46.769Z,99383.41
2022-08-01T23:48:52.694Z,99377.68
2022-08-01T23:58:58.489Z,99372.94
